Time;durP1;ratioP1;P1;durP2;ratioP2;P2;SDS_P1;SDS_P2;PMS_P1;PMS_P2;Temp;Humidity;BMP_temperature;BMP_pressure;BME280_temperature;BME280_humidity;BME280_pressure;Samples;Min_cycle;Max_cycle;Signal;HPM_P1;HPM_P2
2021/12/31 00:00:19;;;;;;;1.67;1.57;;;;;;;;;;5019646;28;20654;-81
2021/12/31 00:02:46;;;;;;;1.00;1.00;;;;;;;;;;5018424;28;20633;-81
2021/12/31 00:05:15;;;;;;;1.60;1.07;;;;;;;;;;5019765;28;21187;-81
2021/12/31 00:07:42;;;;;;;1.20;1.10;;;;;;;;;;5026333;28;20634;-81
2021/12/31 00:10:09;;;;;;;2.70;1.43;;;;;;;;;;5024925;28;20634;-81
2021/12/31 00:12:37;;;;;;;1.37;1.27;;;;;;;;;;5021680;28;20618;-81
2021/12/31 00:15:05;;;;;;;1.57;1.47;;;;;;;;;;5024358;28;20630;-80
2021/12/31 00:17:32;;;;;;;1.57;1.30;;;;;;;;;;5023039;28;20634;-81
2021/12/31 00:20:04;;;;;;;2.03;1.20;;;;;;;;;;5023436;28;21027;-81
2021/12/31 00:23:01;;;;;;;2.67;1.70;;;;;;;;;;5026189;28;20645;-81
2021/12/31 00:25:28;;;;;;;1.77;1.40;;;;;;;;;;5024226;28;20639;-81
2021/12/31 00:27:56;;;;;;;1.30;1.03;;;;;;;;;;5023843;28;20647;-81
2021/12/31 00:30:23;;;;;;;1.47;1.37;;;;;;;;;;5026548;28;20646;-81
2021/12/31 00:32:50;;;;;;;2.20;1.47;;;;;;;;;;5022959;28;20726;-81
2021/12/31 00:35:17;;;;;;;1.70;1.60;;;;;;;;;;5022932;28;20648;-80
2021/12/31 00:37:47;;;;;;;1.17;1.07;;;11.70;99.90;;;;;;5023472;28;20742;-80
2021/12/31 00:40:16;;;;;;;2.20;1.40;;;11.70;99.90;;;;;;5025914;28;21057;-81
2021/12/31 00:42:43;;;;;;;1.30;1.20;;;;;;;;;;5019692;28;20638;-81
2021/12/31 00:45:11;;;;;;;3.77;1.80;;;;;;;;;;5024274;28;20638;-81
2021/12/31 00:47:39;;;;;;;1.90;1.80;;;11.60;99.90;;;;;;5020201;28;20626;-81
2021/12/31 00:50:07;;;;;;;1.63;1.40;;;11.60;99.90;;;;;;5026562;28;20630;-81
2021/12/31 00:52:34;;;;;;;4.27;3.97;;;;;;;;;;5017681;28;20656;-81
2021/12/31 00:55:03;;;;;;;4.53;2.00;;;;;;;;;;5023507;28;20629;-81
2021/12/31 00:57:30;;;;;;;2.77;2.50;;;;;;;;;;5025632;28;20631;-80
2021/12/31 00:59:58;;;;;;;3.80;2.30;;;;;;;;;;5023078;28;20672;-81
2021/12/31 01:02:28;;;;;;;4.00;1.77;;;;;;;;;;5023447;28;20629;-81
2021/12/31 01:04:55;;;;;;;1.70;1.60;;;;;;;;;;5022129;28;20633;-82
2021/12/31 01:07:22;;;;;;;2.03;1.83;;;;;;;;;;5026249;28;20633;-81
2021/12/31 01:09:49;;;;;;;2.20;1.17;;;;;;;;;;5024265;28;20636;-81
2021/12/31 01:12:18;;;;;;;2.13;1.57;;;11.20;99.90;;;;;;5024126;28;21178;-81
2021/12/31 01:14:54;;;;;;;2.33;1.53;;;;;;;;;;5024299;28;20662;-82
2021/12/31 01:17:37;;;;;;;3.53;1.97;;;;;;;;;;5024017;28;21007;-81
2021/12/31 01:20:06;;;;;;;1.80;1.50;;;11.10;99.90;;;;;;5024020;28;20806;-81
2021/12/31 01:22:33;;;;;;;1.77;1.50;;;11.30;99.90;;;;;;5024351;28;20642;-81
2021/12/31 01:25:01;;;;;;;2.43;1.83;;;11.10;99.90;;;;;;5022717;28;20631;-81
2021/12/31 01:27:29;;;;;;;1.63;1.53;;;11.00;99.90;;;;;;5022071;28;20628;-81
2021/12/31 01:29:56;;;;;;;1.53;1.43;;;;;;;;;;5022410;28;20627;-81
2021/12/31 01:32:24;;;;;;;1.90;1.63;;;;;;;;;;5024183;28;20640;-81
2021/12/31 01:34:51;;;;;;;1.80;1.27;;;;;;;;;;5025196;28;20640;-81
2021/12/31 01:37:19;;;;;;;2.67;2.10;;;;;;;;;;5022076;28;20619;-81
2021/12/31 01:39:46;;;;;;;2.33;1.57;;;;;;;;;;5019678;28;21061;-81
2021/12/31 01:42:14;;;;;;;1.93;1.83;;;10.70;99.90;;;;;;5021537;28;20691;-81
2021/12/31 01:44:46;;;;;;;2.70;1.60;;;;;;;;;;5027065;28;20624;-81
2021/12/31 01:47:16;;;;;;;1.90;1.30;;;10.70;99.90;;;;;;5017577;28;20664;-81
2021/12/31 01:49:55;;;;;;;1.50;1.40;;;10.60;99.90;;;;;;5020684;28;21227;-81
2021/12/31 01:52:22;;;;;;;1.33;1.23;;;;;;;;;;5023692;28;20646;-81
2021/12/31 01:54:50;;;;;;;1.37;1.27;;;;;;;;;;5021808;28;21208;-81
2021/12/31 01:57:18;;;;;;;2.93;1.30;;;10.40;99.90;;;;;;5025828;28;21181;-81
2021/12/31 01:59:47;;;;;;;1.60;1.17;;;;;;;;;;5021675;28;20712;-81
2021/12/31 02:02:15;;;;;;;1.67;1.47;;;;;;;;;;5025537;28;20702;-81
2021/12/31 02:04:42;;;;;;;3.70;1.60;;;10.20;99.90;;;;;;5021764;28;20642;-81
2021/12/31 02:07:10;;;;;;;3.20;1.40;;;;;;;;;;5022278;28;21001;-81
2021/12/31 02:09:42;;;;;;;1.37;1.27;;;;;;;;;;5025408;28;20627;-81
2021/12/31 02:12:11;;;;;;;1.87;1.33;;;;;;;;;;5026011;28;20635;-81
2021/12/31 02:14:38;;;;;;;1.83;1.53;;;;;;;;;;5022309;28;20639;-81
2021/12/31 02:17:09;;;;;;;2.30;1.90;;;10.10;99.90;;;;;;5022569;28;20651;-81
2021/12/31 02:19:36;;;;;;;2.27;1.60;;;;;;;;;;5023615;28;20656;-81
2021/12/31 02:22:05;;;;;;;1.70;1.60;;;10.10;99.90;;;;;;5023512;28;20706;-80
2021/12/31 02:24:35;;;;;;;1.53;1.40;;;;;;;;;;5021323;28;20626;-80
2021/12/31 02:27:02;;;;;;;1.93;1.80;;;;;;;;;;5021147;28;21158;-81
2021/12/31 02:29:29;;;;;;;2.87;1.70;;;;;;;;;;5021952;28;20685;-81
2021/12/31 02:31:57;;;;;;;3.43;1.70;;;;;;;;;;5022266;28;20632;-81
2021/12/31 02:34:24;;;;;;;1.67;1.40;;;;;;;;;;5025297;28;20635;-81
2021/12/31 02:36:51;;;;;;;1.60;1.50;;;9.90;99.90;;;;;;5021819;28;20631;-81
2021/12/31 02:39:20;;;;;;;1.93;1.70;;;9.90;99.90;;;;;;5018651;28;20635;-81
2021/12/31 02:41:47;;;;;;;1.60;1.50;;;;;;;;;;5023029;28;21219;-81
2021/12/31 02:44:14;;;;;;;2.07;1.43;;;;;;;;;;5016529;28;20654;-81
2021/12/31 02:46:41;;;;;;;2.63;1.70;;;;;;;;;;5024762;28;20695;-81
2021/12/31 02:49:09;;;;;;;2.20;1.60;;;;;;;;;;5021738;28;20631;-81
2021/12/31 02:51:36;;;;;;;2.10;1.40;;;;;;;;;;5020539;28;20632;-81
2021/12/31 02:54:07;;;;;;;2.37;1.67;;;;;;;;;;5021198;28;20635;-81
2021/12/31 02:56:36;;;;;;;1.70;1.60;;;;;;;;;;5021307;28;21031;-81
2021/12/31 02:59:03;;;;;;;1.90;1.80;;;;;;;;;;5025414;28;21537;-81
2021/12/31 03:01:30;;;;;;;3.53;1.70;;;;;;;;;;5024695;28;20662;-81
2021/12/31 03:03:58;;;;;;;1.50;1.40;;;;;;;;;;5017340;28;20628;-81
2021/12/31 03:06:25;;;;;;;2.40;1.97;;;;;;;;;;5026087;28;20986;-81
2021/12/31 03:08:54;;;;;;;3.10;2.00;;;9.30;99.90;;;;;;5021642;28;20632;-81
2021/12/31 03:11:22;;;;;;;1.77;1.67;;;9.40;99.90;;;;;;5024143;28;21194;-81
2021/12/31 03:13:52;;;;;;;1.00;1.00;;;10.70;99.90;;;;;;5022525;28;20654;-81
2021/12/31 03:16:21;;;;;;;1.50;1.40;;;9.30;99.90;;;;;;5020540;28;20648;-81
2021/12/31 03:18:49;;;;;;;1.80;1.70;;;9.20;99.90;;;;;;5020598;28;20643;-81
2021/12/31 03:21:22;;;;;;;1.27;1.20;;;;;;;;;;5021100;28;21258;-81
2021/12/31 03:23:52;;;;;;;3.43;1.30;;;9.00;99.90;;;;;;5017185;28;20647;-81
2021/12/31 03:26:20;;;;;;;1.60;1.30;;;;;;;;;;5020759;28;20744;-81
2021/12/31 03:28:47;;;;;;;1.70;1.60;;;;;;;;;;5020445;28;21356;-81
2021/12/31 03:31:16;;;;;;;1.80;1.70;;;;;;;;;;5023529;28;20631;-81
2021/12/31 03:33:43;;;;;;;1.60;1.33;;;;;;;;;;5020793;28;20627;-81
2021/12/31 03:36:10;;;;;;;2.23;2.03;;;;;;;;;;5020616;28;20647;-81
2021/12/31 03:38:38;;;;;;;5.50;1.77;;;;;;;;;;5015869;28;20729;-81
2021/12/31 03:41:05;;;;;;;2.50;2.17;;;;;;;;;;5020582;28;20722;-81
2021/12/31 03:43:32;;;;;;;1.67;1.57;;;;;;;;;;5020969;28;20635;-81
2021/12/31 03:45:59;;;;;;;1.63;1.50;;;;;;;;;;5019439;28;20631;-81
2021/12/31 03:48:28;;;;;;;1.80;1.70;;;;;;;;;;5021833;28;20698;-81
2021/12/31 03:50:55;;;;;;;1.60;1.50;;;;;;;;;;5023388;28;20634;-81
2021/12/31 03:53:22;;;;;;;2.23;2.03;;;;;;;;;;5022118;28;20641;-81
2021/12/31 03:55:50;;;;;;;1.83;1.73;;;;;;;;;;5021420;28;20727;-81
2021/12/31 03:58:17;;;;;;;2.27;1.53;;;;;;;;;;5022806;28;21204;-80
2021/12/31 04:00:46;;;;;;;1.43;1.33;;;;;;;;;;5023141;28;20737;-81
2021/12/31 04:03:14;;;;;;;2.50;1.70;;;;;;;;;;5022202;28;20998;-81
2021/12/31 04:05:44;;;;;;;3.07;1.83;;;;;;;;;;5021278;28;20630;-81
2021/12/31 04:08:12;;;;;;;2.50;1.50;;;;;;;;;;5017027;28;21238;-81
2021/12/31 04:10:40;;;;;;;6.90;1.67;;;;;;;;;;5025971;28;20634;-81
2021/12/31 04:13:08;;;;;;;1.60;1.50;;;;;;;;;;5018406;28;20664;-81
2021/12/31 04:15:36;;;;;;;4.70;1.90;;;;;;;;;;5019459;28;20663;-80
2021/12/31 04:18:04;;;;;;;2.23;1.63;;;;;;;;;;5022349;28;20832;-81
2021/12/31 04:20:38;;;;;;;3.37;1.43;;;;;;;;;;5021606;28;20654;-81
2021/12/31 04:23:13;;;;;;;1.10;1.00;;;8.10;99.90;;;;;;5017682;28;21080;-81
2021/12/31 04:25:44;;;;;;;2.63;1.60;;;;;;;;;;5019365;28;20641;-81
2021/12/31 04:28:11;;;;;;;4.73;1.63;;;8.00;99.90;;;;;;5019099;28;21199;-81
2021/12/31 04:30:38;;;;;;;1.70;1.60;;;;;;;;;;5023246;28;21586;-81
2021/12/31 04:33:06;;;;;;;1.67;1.57;;;;;;;;;;5011933;28;20646;-81
2021/12/31 04:35:33;;;;;;;2.10;1.57;;;;;;;;;;5023375;28;20698;-81
2021/12/31 04:38:01;;;;;;;1.40;1.30;;;;;;;;;;5018897;28;21036;-81
2021/12/31 04:40:29;;;;;;;1.80;1.70;;;8.00;99.90;;;;;;5023840;28;20686;-80
2021/12/31 04:42:56;;;;;;;1.50;1.30;;;;;;;;;;5023564;28;20619;-81
2021/12/31 04:45:24;;;;;;;2.83;2.23;;;;;;;;;;5020897;28;20625;-81
2021/12/31 04:47:52;;;;;;;3.70;1.30;;;7.80;99.90;;;;;;5021980;28;20624;-80
2021/12/31 04:50:19;;;;;;;2.77;1.60;;;;;;;;;;5019202;28;21183;-80
2021/12/31 04:52:46;;;;;;;2.00;1.30;;;;;;;;;;5025057;28;20627;-80
2021/12/31 04:55:13;;;;;;;2.47;1.93;;;;;;;;;;5022952;28;20738;-81
2021/12/31 04:57:47;;;;;;;1.33;1.20;;;;;;;;;;5026083;28;20611;-81
2021/12/31 05:00:14;;;;;;;1.97;1.87;;;7.90;99.90;;;;;;5027178;28;20714;-81
2021/12/31 05:02:41;;;;;;;2.00;1.80;;;;;;;;;;5026412;28;21273;-81
2021/12/31 05:05:09;;;;;;;1.90;1.33;;;;;;;;;;5021704;28;20706;-81
2021/12/31 05:07:36;;;;;;;1.67;1.50;;;;;;;;;;5020919;28;20623;-81
2021/12/31 05:10:03;;;;;;;1.73;1.37;;;;;;;;;;5026661;28;20634;-81
2021/12/31 05:12:33;;;;;;;1.13;1.00;;;;;;;;;;5026435;28;20744;-81
2021/12/31 05:15:02;;;;;;;1.57;1.47;;;7.50;99.90;;;;;;5025065;28;21199;-81
2021/12/31 05:17:29;;;;;;;2.13;1.60;;;7.40;99.90;;;;;;5022787;28;20648;-80
2021/12/31 05:19:56;;;;;;;1.33;1.23;;;;;;;;;;5027916;28;20670;-81
2021/12/31 05:22:24;;;;;;;2.33;1.43;;;;;;;;;;5024069;28;20662;-81
2021/12/31 05:24:51;;;;;;;1.67;1.57;;;;;;;;;;5026177;28;20666;-81
2021/12/31 05:27:18;;;;;;;1.37;1.27;;;;;;;;;;5023036;28;21085;-81
2021/12/31 05:29:45;;;;;;;1.63;1.53;;;;;;;;;;5025234;28;20645;-81
2021/12/31 05:32:14;;;;;;;2.13;1.60;;;7.50;99.90;;;;;;5022860;28;20619;-81
2021/12/31 05:34:41;;;;;;;3.70;2.10;;;;;;;;;;5025876;28;20631;-81
2021/12/31 05:37:09;;;;;;;2.40;1.60;;;;;;;;;;5022381;28;20631;-81
2021/12/31 05:39:36;;;;;;;1.90;1.57;;;;;;;;;;5019582;28;20719;-81
2021/12/31 05:42:03;;;;;;;1.67;1.57;;;;;;;;;;5024101;28;20697;-81
2021/12/31 05:44:30;;;;;;;1.63;1.53;;;;;;;;;;5021347;28;20725;-81
2021/12/31 05:46:57;;;;;;;2.23;2.13;;;7.70;99.90;;;;;;5023990;28;20710;-81
2021/12/31 05:49:25;;;;;;;2.43;2.23;;;7.80;99.90;;;;;;5021350;28;20711;-81
2021/12/31 05:51:53;;;;;;;2.73;2.47;;;;;;;;;;5027892;28;20635;-81
2021/12/31 05:54:20;;;;;;;2.90;2.20;;;;;;;;;;5025476;28;20635;-81
2021/12/31 05:56:47;;;;;;;2.50;1.80;;;7.30;99.90;;;;;;5021573;28;21193;-81
2021/12/31 05:59:15;;;;;;;4.00;2.20;;;6.80;99.90;;;;;;5026207;28;20654;-80
2021/12/31 06:01:42;;;;;;;3.13;2.30;;;;;;;;;;5025926;28;20750;-81
2021/12/31 06:04:09;;;;;;;2.23;2.03;;;;;;;;;;5027802;28;20667;-80
2021/12/31 06:06:38;;;;;;;2.10;2.00;;;7.70;99.90;;;;;;5021255;28;20639;-81
2021/12/31 06:09:07;;;;;;;3.37;2.23;;;7.60;99.90;;;;;;5021860;28;20972;-81
2021/12/31 06:11:34;;;;;;;5.30;1.83;;;;;;;;;;5025407;28;20631;-81
2021/12/31 06:14:04;;;;;;;2.10;1.90;;;7.80;99.90;;;;;;5026864;28;20725;-81
2021/12/31 06:16:36;;;;;;;1.93;1.53;;;7.60;99.90;;;;;;5021591;28;20777;-80
2021/12/31 06:19:04;;;;;;;2.20;2.10;;;7.60;99.90;;;;;;5024558;28;20626;-80
2021/12/31 06:21:31;;;;;;;1.93;1.80;;;;;;;;;;5023553;28;20659;-80
2021/12/31 06:24:00;;;;;;;1.97;1.87;;;7.50;99.90;;;;;;5019496;28;20746;-81
2021/12/31 06:26:27;;;;;;;2.43;2.00;;;;;;;;;;5022082;28;20730;-81
2021/12/31 06:28:55;;;;;;;1.80;1.70;;;;;;;;;;5024675;28;20694;-81
2021/12/31 06:31:22;;;;;;;1.93;1.80;;;;;;;;;;5022414;28;21226;-80
2021/12/31 06:33:49;;;;;;;2.03;1.93;;;;;;;;;;5022109;28;20636;-80
2021/12/31 06:36:17;;;;;;;1.70;1.60;;;;;;;;;;5021245;28;21319;-80
2021/12/31 06:38:44;;;;;;;1.50;1.40;;;;;;;;;;5025052;28;20292;-80
2021/12/31 06:41:14;;;;;;;6.97;1.87;;;;;;;;;;5021769;28;20674;-80
2021/12/31 06:43:41;;;;;;;2.58;2.00;;;;;;;;;;5014513;28;20627;-80
2021/12/31 06:46:08;;;;;;;2.30;2.10;;;;;;;;;;5024488;28;20212;-80
2021/12/31 06:48:35;;;;;;;1.73;1.63;;;8.10;99.90;;;;;;5021503;28;21403;-80
2021/12/31 06:51:02;;;;;;;2.53;1.63;;;;;;;;;;5019766;28;20693;-80
2021/12/31 06:53:29;;;;;;;2.10;1.90;;;;;;;;;;5019172;28;20620;-80
2021/12/31 06:55:57;;;;;;;2.70;1.87;;;;;;;;;;5024820;28;20632;-81
2021/12/31 06:58:26;;;;;;;1.97;1.57;;;8.00;99.90;;;;;;5026431;28;21382;-81
2021/12/31 07:00:54;;;;;;;5.87;2.20;;;;;;;;;;5026363;28;21374;-81
2021/12/31 07:03:21;;;;;;;2.83;2.13;;;8.00;99.90;;;;;;5026179;28;21636;-81
2021/12/31 07:05:48;;;;;;;3.80;2.47;;;;;;;;;;5027337;28;21385;-81
2021/12/31 07:08:16;;;;;;;4.03;2.53;;;;;;;;;;5028428;28;20635;-81
2021/12/31 07:10:43;;;;;;;2.93;1.90;;;;;;;;;;5028387;28;21030;-81
2021/12/31 07:13:14;;;;;;;2.47;2.27;;;;;;;;;;5027738;28;20619;-82
2021/12/31 07:15:48;;;;;;;8.30;2.57;;;7.20;99.90;;;;;;5023700;28;20674;-81
2021/12/31 07:18:15;;;;;;;2.13;1.92;;;8.20;99.90;;;;;;5027835;28;20631;-81
2021/12/31 07:20:43;;;;;;;2.70;2.33;;;8.10;99.90;;;;;;5027647;28;20209;-81
2021/12/31 07:23:11;;;;;;;2.33;2.13;;;8.20;99.90;;;;;;5027592;28;21211;-81
2021/12/31 07:25:39;;;;;;;3.10;2.80;;;8.30;99.90;;;;;;5026755;28;20999;-82
2021/12/31 07:28:13;;;;;;;2.77;2.40;;;8.20;99.90;;;;;;5023682;28;20627;-83
2021/12/31 07:31:00;;;;;;;3.90;3.33;;;8.20;99.90;;;;;;5027653;28;20750;-82
2021/12/31 07:33:28;;;;;;;3.83;3.00;;;8.20;99.90;;;;;;5026100;28;20673;-82
2021/12/31 07:36:00;;;;;;;4.57;3.13;;;8.30;99.90;;;;;;5027205;28;20643;-83
2021/12/31 07:38:33;;;;;;;3.57;2.90;;;;;;;;;;5026434;28;21274;-82
2021/12/31 07:41:00;;;;;;;6.20;3.73;;;;;;;;;;5027150;28;20697;-82
2021/12/31 07:43:30;;;;;;;4.80;3.23;;;;;;;;;;5027755;28;20670;-83
2021/12/31 07:45:58;;;;;;;4.77;2.87;;;8.20;99.90;;;;;;5026086;28;20734;-82
2021/12/31 07:48:26;;;;;;;3.87;3.07;;;;;;;;;;5026990;28;20639;-82
2021/12/31 07:50:54;;;;;;;3.67;3.30;;;8.30;99.90;;;;;;5027780;28;20633;-82
2021/12/31 07:53:21;;;;;;;4.03;3.43;;;7.90;99.90;;;;;;5018851;28;20642;-83
2021/12/31 07:55:51;;;;;;;5.80;3.80;;;;;;;;;;5020140;28;20670;-81
2021/12/31 07:58:19;;;;;;;4.27;3.60;;;;;;;;;;5022409;28;20635;-81
2021/12/31 08:00:46;;;;;;;5.83;3.47;;;;;;;;;;5025893;28;21187;-82
2021/12/31 08:03:15;;;;;;;4.20;3.80;;;8.40;99.90;;;;;;5025883;28;21013;-82
2021/12/31 08:05:43;;;;;;;4.10;3.40;;;;;;;;;;5026698;28;21274;-81
2021/12/31 08:08:10;;;;;;;3.50;3.17;;;;;;;;;;5016620;28;20655;-81
2021/12/31 08:10:40;;;;;;;5.00;3.50;;;;;;;;;;5021771;28;20632;-82
2021/12/31 08:13:07;;;;;;;5.47;4.10;;;;;;;;;;5019647;28;21188;-81
2021/12/31 08:15:35;;;;;;;4.90;3.70;;;;;;;;;;5021653;28;20624;-82
2021/12/31 08:18:02;;;;;;;7.03;3.70;;;;;;;;;;5020258;28;21192;-82
2021/12/31 08:20:31;;;;;;;5.57;4.30;;;;;;;;;;5019362;28;20667;-82
2021/12/31 08:23:06;;;;;;;7.00;4.57;;;8.80;99.90;;;;;;5025771;28;21594;-81
2021/12/31 08:25:34;;;;;;;6.90;5.00;;;9.40;99.90;;;;;;5013249;28;20754;-81
2021/12/31 08:28:01;;;;;;;6.73;4.30;;;;;;;;;;5025496;28;21183;-81
2021/12/31 08:30:28;;;;;;;5.90;4.57;;;8.80;99.90;;;;;;5026770;28;21000;-82
2021/12/31 08:32:57;;;;;;;5.57;4.47;;;;;;;;;;5023812;28;20634;-82
2021/12/31 08:35:25;;;;;;;4.87;4.47;;;;;;;;;;5023452;28;21539;-83
2021/12/31 08:37:54;;;;;;;5.93;4.83;;;;;;;;;;5023646;28;20658;-83
2021/12/31 08:40:22;;;;;;;4.57;4.13;;;;;;;;;;5025880;28;20734;-83
2021/12/31 08:42:49;;;;;;;5.13;4.20;;;;;;;;;;5025608;28;20667;-83
2021/12/31 08:45:17;;;;;;;13.33;5.30;;;;;;;;;;5023292;28;20643;-84
2021/12/31 08:47:44;;;;;;;8.10;5.40;;;;;;;;;;5027782;28;21557;-84
2021/12/31 08:50:11;;;;;;;5.83;4.93;;;;;;;;;;5030651;28;20730;-83
2021/12/31 08:52:45;;;;;;;8.13;4.60;;;;;;;;;;5030119;28;21188;-84
2021/12/31 08:55:14;;;;;;;7.60;5.13;;;;;;;;;;5029716;28;20643;-84
2021/12/31 08:57:42;;;;;;;6.23;5.00;;;;;;;;;;5028496;28;20689;-84
2021/12/31 09:00:10;;;;;;;5.67;5.17;;;9.20;99.90;;;;;;5029340;28;21725;-84
2021/12/31 09:02:38;;;;;;;6.00;4.83;;;;;;;;;;5023269;28;20667;-83
2021/12/31 09:05:06;;;;;;;6.63;5.50;;;;;;;;;;5022012;28;20725;-83
2021/12/31 09:07:33;;;;;;;5.10;4.27;;;;;;;;;;5028509;28;20645;-84
2021/12/31 09:10:00;;;;;;;9.40;6.70;;;;;;;;;;5029651;28;20637;-84
2021/12/31 09:12:29;;;;;;;8.93;5.50;;;9.80;99.90;;;;;;5027136;28;20630;-84
2021/12/31 09:14:56;;;;;;;6.57;5.00;;;;;;;;;;5015869;28;20646;-83
2021/12/31 09:17:23;;;;;;;7.90;5.23;;;;;;;;;;5018031;28;20700;-84
2021/12/31 09:19:50;;;;;;;5.97;4.77;;;;;;;;;;5021233;28;20622;-84
2021/12/31 09:22:18;;;;;;;6.43;4.40;;;;;;;;;;5017927;28;20765;-83
2021/12/31 09:24:45;;;;;;;7.10;5.30;;;;;;;;;;5018158;28;20643;-83
2021/12/31 09:27:12;;;;;;;7.13;5.27;;;;;;;;;;5018232;28;20618;-84
2021/12/31 09:29:41;;;;;;;5.23;4.73;;;;;;;;;;5021488;28;20677;-84
2021/12/31 09:32:09;;;;;;;6.30;5.10;;;10.20;99.90;;;;;;5018983;28;20628;-84
2021/12/31 09:34:36;;;;;;;6.40;5.00;;;;;;;;;;5021972;28;20676;-83
2021/12/31 09:37:07;;;;;;;6.87;5.07;;;;;;;;;;5019607;28;21192;-84
2021/12/31 09:39:35;;;;;;;7.70;5.30;;;;;;;;;;5022259;28;20626;-84
2021/12/31 09:42:03;;;;;;;5.97;5.30;;;;;;;;;;5019035;28;20690;-84
2021/12/31 09:44:30;;;;;;;5.67;4.73;;;;;;;;;;5021527;28;20656;-83
2021/12/31 09:46:59;;;;;;;7.50;5.40;;;;;;;;;;5019418;28;20635;-83
2021/12/31 09:49:26;;;;;;;7.03;5.33;;;;;;;;;;5021989;28;20626;-83
2021/12/31 09:51:54;;;;;;;5.53;4.93;;;;;;;;;;5019441;28;21173;-83
2021/12/31 09:54:22;;;;;;;5.33;4.23;;;;;;;;;;5020190;28;20619;-83
2021/12/31 09:56:49;;;;;;;6.83;4.73;;;;;;;;;;5020316;28;20714;-82
2021/12/31 09:59:17;;;;;;;5.77;5.17;;;;;;;;;;5022090;28;20636;-82
2021/12/31 10:01:48;;;;;;;4.37;3.97;;;10.50;99.90;;;;;;5020257;28;20635;-83
2021/12/31 10:04:16;;;;;;;5.03;4.53;;;;;;;;;;5020524;28;20627;-82
2021/12/31 10:07:05;;;;;;;6.07;5.47;;;11.00;99.90;;;;;;5017643;28;20631;-83
2021/12/31 10:09:32;;;;;;;4.47;3.40;;;;;;;;;;5019614;28;20621;-83
2021/12/31 10:12:01;;;;;;;5.20;4.40;;;;;;;;;;5021024;28;20627;-83
2021/12/31 10:14:36;;;;;;;6.47;5.43;;;10.60;99.90;;;;;;5018827;28;20620;-83
2021/12/31 10:17:03;;;;;;;6.37;4.27;;;;;;;;;;5019850;28;21138;-82
2021/12/31 10:19:32;;;;;;;6.87;5.30;;;;;;;;;;5021395;28;20639;-81
2021/12/31 10:21:59;;;;;;;5.67;5.17;;;;;;;;;;5020165;28;20689;-83
2021/12/31 10:24:34;;;;;;;7.33;5.33;;;10.80;99.90;;;;;;5018611;28;20627;-83
2021/12/31 10:27:04;;;;;;;6.57;4.97;;;10.70;99.90;;;;;;5019639;28;20635;-83
2021/12/31 10:29:31;;;;;;;7.47;5.53;;;;;;;;;;5020191;28;20627;-82
2021/12/31 10:31:59;;;;;;;7.13;5.93;;;;;;;;;;5019173;28;20626;-82
2021/12/31 10:34:32;;;;;;;7.30;5.23;;;10.50;99.90;;;;;;5018831;28;21239;-83
2021/12/31 10:37:00;;;;;;;7.60;6.20;;;10.90;99.90;;;;;;5019040;28;20638;-83
2021/12/31 10:39:29;;;;;;;6.70;4.80;;;10.90;99.90;;;;;;5020278;28;20955;-83
2021/12/31 10:42:07;;;;;;;7.40;5.87;;;11.00;99.90;;;;;;5018879;28;20649;-83
2021/12/31 10:44:47;;;;;;;7.33;4.73;;;11.00;99.90;;;;;;5016334;28;21410;-83
2021/12/31 10:47:17;;;;;;;7.03;5.23;;;11.00;99.90;;;;;;5021380;28;20636;-83
2021/12/31 10:50:11;;;;;;;5.77;4.37;;;10.70;99.90;;;;;;5018985;28;20718;-83
2021/12/31 10:52:41;;;;;;;5.90;4.63;;;;;;;;;;5021350;28;20617;-83
2021/12/31 10:55:19;;;;;;;7.83;4.77;;;10.90;99.90;;;;;;5019537;28;20699;-83
2021/12/31 10:57:47;;;;;;;5.50;4.33;;;11.00;99.90;;;;;;5021691;28;20636;-82
2021/12/31 11:00:16;;;;;;;5.70;5.20;;;11.00;99.90;;;;;;5019998;28;20676;-83
2021/12/31 11:02:44;;;;;;;6.37;4.63;;;;;;;;;;5018830;28;20649;-83
2021/12/31 11:05:14;;;;;;;5.70;4.37;;;11.10;99.90;;;;;;5018319;28;20699;-83
2021/12/31 11:07:42;;;;;;;6.77;5.23;;;11.10;99.90;;;;;;5019523;28;20635;-82
2021/12/31 11:10:11;;;;;;;5.20;4.60;;;11.10;99.90;;;;;;5018579;28;20640;-83
2021/12/31 11:12:42;;;;;;;5.97;4.90;;;11.20;99.90;;;;;;5019402;28;21236;-83
2021/12/31 11:15:10;;;;;;;4.90;4.50;;;11.20;99.90;;;;;;5018224;28;20628;-83
2021/12/31 11:17:38;;;;;;;6.23;5.17;;;11.30;99.90;;;;;;5018279;28;21243;-83
2021/12/31 11:20:08;;;;;;;6.10;4.97;;;11.30;99.90;;;;;;5017361;28;20731;-83
2021/12/31 11:22:36;;;;;;;5.87;5.20;;;11.40;99.90;;;;;;5018910;28;20658;-83
2021/12/31 11:25:25;;;;;;;4.73;4.33;;;11.40;99.90;;;;;;5016668;28;21228;-83
2021/12/31 11:27:53;;;;;;;5.33;4.83;;;11.40;99.90;;;;;;5017300;28;20620;-83
2021/12/31 11:30:33;;;;;;;5.37;4.47;;;11.40;99.90;;;;;;5018651;28;21170;-83
2021/12/31 11:33:05;;;;;;;5.70;4.40;;;11.40;99.90;;;;;;5018168;28;20975;-83
2021/12/31 11:35:35;;;;;;;4.03;3.70;;;12.70;99.90;;;;;;5016295;28;20682;-83
2021/12/31 11:38:05;;;;;;;5.27;4.77;;;11.60;99.90;;;;;;5019516;28;20738;-83
2021/12/31 11:40:33;;;;;;;6.90;4.47;;;11.60;99.90;;;;;;5016130;28;20720;-83
2021/12/31 11:43:24;;;;;;;4.37;3.97;;;11.60;99.90;;;;;;5018824;28;20666;-83
2021/12/31 11:46:42;;;;;;;4.70;4.20;;;11.70;99.90;;;;;;5018729;28;20632;-83
2021/12/31 11:49:20;;;;;;;4.53;4.13;;;11.70;99.90;;;;;;5016534;28;20638;-83
2021/12/31 11:52:04;;;;;;;6.60;4.50;;;11.70;99.90;;;;;;5017692;28;21175;-83
2021/12/31 11:54:34;;;;;;;3.70;3.27;;;11.70;99.90;;;;;;5019784;28;21013;-83
2021/12/31 11:57:20;;;;;;;5.30;4.30;;;11.70;99.90;;;;;;5018109;28;20648;-83
2021/12/31 11:59:52;;;;;;;5.83;4.03;;;11.80;99.90;;;;;;5016054;28;20659;-83
2021/12/31 12:02:33;;;;;;;4.23;3.83;;;11.90;99.90;;;;;;5017625;28;20624;-83
2021/12/31 12:05:14;;;;;;;6.00;4.37;;;12.00;99.90;;;;;;5015592;28;20976;-83
2021/12/31 12:07:47;;;;;;;3.27;2.97;;;12.10;99.90;;;;;;5014905;28;20640;-83
2021/12/31 12:10:21;;;;;;;3.47;3.17;;;12.10;99.90;;;;;;5016103;28;20638;-83
2021/12/31 12:12:51;;;;;;;3.47;3.17;;;12.10;99.90;;;;;;5019377;28;20680;-83
2021/12/31 12:18:08;;;;;;;3.03;2.80;;;12.00;99.90;;;;;;5077012;27;20967;-82
2021/12/31 12:20:39;;;;;;;4.03;2.93;;;12.10;99.90;;;;;;5073415;28;20631;-82
2021/12/31 12:23:14;;;;;;;3.47;3.17;;;;;;;;;;5076727;28;21468;-82
2021/12/31 12:25:41;;;;;;;3.23;2.93;;;;;;;;;;5072779;28;21181;-82
2021/12/31 12:28:10;;;;;;;3.13;2.83;;;;;;;;;;5076799;28;20634;-82
2021/12/31 12:30:43;;;;;;;3.37;3.13;;;;;;;;;;5072807;28;20644;-82
2021/12/31 12:33:18;;;;;;;3.63;2.70;;;;;;;;;;5072950;28;20694;-82
2021/12/31 12:35:47;;;;;;;2.90;2.60;;;12.10;99.90;;;;;;5072960;28;21197;-82
2021/12/31 12:38:18;;;;;;;2.43;2.23;;;12.30;99.90;;;;;;5076207;28;20656;-82
2021/12/31 12:40:47;;;;;;;2.97;2.70;;;12.40;99.90;;;;;;5074557;28;20728;-81
2021/12/31 12:43:16;;;;;;;2.50;2.30;;;12.50;99.90;;;;;;5074973;28;20715;-81
2021/12/31 12:45:46;;;;;;;2.50;2.30;;;12.50;99.90;;;;;;5073389;28;20639;-82
2021/12/31 12:48:14;;;;;;;2.40;2.20;;;;;;;;;;5075097;28;20631;-82
2021/12/31 12:50:48;;;;;;;2.60;2.40;;;12.60;99.90;;;;;;5074058;28;20625;-82
2021/12/31 12:53:20;;;;;;;2.60;2.40;;;;;;;;;;5074503;28;20624;-82
2021/12/31 12:55:47;;;;;;;3.03;2.70;;;;;;;;;;5074096;28;20621;-82
2021/12/31 12:58:22;;;;;;;2.90;2.70;;;;;;;;;;5076476;28;20637;-82
2021/12/31 13:00:54;;;;;;;3.93;3.47;;;;;;;;;;5073488;28;21173;-82
2021/12/31 13:03:24;;;;;;;2.53;2.40;;;12.70;99.90;;;;;;5064634;28;21159;-83
2021/12/31 13:06:02;;;;;;;2.77;2.30;;;;;;;;;;5072620;28;20670;-83
2021/12/31 13:08:29;;;;;;;2.30;2.20;;;;;;;;;;5073522;28;20636;-82
2021/12/31 13:10:56;;;;;;;2.90;2.70;;;;;;;;;;5075577;28;20636;-82
2021/12/31 13:13:23;;;;;;;1.97;1.87;;;;;;;;;;5072932;28;20632;-83
2021/12/31 13:15:51;;;;;;;2.50;2.30;;;;;;;;;;5071776;28;20631;-82
2021/12/31 13:18:27;;;;;;;2.23;2.13;;;12.80;99.90;;;;;;5071808;28;20641;-82
2021/12/31 13:21:03;;;;;;;5.70;2.60;;;12.90;99.90;;;;;;5063822;28;20633;-83
2021/12/31 13:23:31;;;;;;;2.73;2.40;;;;;;;;;;5063910;28;20636;-83
2021/12/31 13:25:58;;;;;;;3.07;2.77;;;;;;;;;;5062990;28;20622;-83
2021/12/31 13:28:27;;;;;;;4.80;2.60;;;12.90;99.90;;;;;;5056126;28;20626;-83
2021/12/31 13:30:59;;;;;;;4.03;3.63;;;;;;;;;;5050384;28;20630;-82
2021/12/31 13:33:29;;;;;;;2.70;2.50;;;12.80;99.90;;;;;;5050630;28;20680;-82
2021/12/31 13:36:13;;;;;;;3.60;3.00;;;;;;;;;;5060174;28;20622;-83
2021/12/31 13:39:00;;;;;;;3.47;3.17;;;12.80;99.90;;;;;;5051204;28;20621;-83
2021/12/31 13:41:28;;;;;;;3.57;2.87;;;;;;;;;;5049965;28;21033;-82
2021/12/31 13:43:56;;;;;;;2.83;2.63;;;12.90;99.90;;;;;;5050444;28;20630;-83
2021/12/31 13:46:29;;;;;;;3.50;3.07;;;12.60;99.90;;;;;;5049892;28;20630;-82
2021/12/31 13:49:05;;;;;;;2.47;2.27;;;;;;;;;;5050399;28;20855;-82
2021/12/31 13:51:33;;;;;;;3.30;3.10;;;13.00;99.90;;;;;;5058803;28;20629;-83
2021/12/31 13:54:00;;;;;;;3.03;2.73;;;13.00;99.90;;;;;;5062354;28;20982;-83
2021/12/31 13:56:35;;;;;;;3.07;2.87;;;;;;;;;;5057879;28;20657;-83
2021/12/31 13:59:16;;;;;;;5.30;2.30;;;;;;;;;;5060931;28;20636;-83
2021/12/31 14:02:21;;;;;;;2.87;2.57;;;13.00;99.90;;;;;;5059708;28;20698;-83
2021/12/31 14:05:12;;;;;;;2.60;2.40;;;12.80;99.90;;;;;;5055369;28;21188;-82
2021/12/31 14:07:46;;;;;;;2.70;2.50;;;12.80;99.90;;;;;;5060233;28;20633;-82
2021/12/31 14:10:18;;;;;;;4.40;2.47;;;12.80;99.90;;;;;;5058831;28;20734;-82
2021/12/31 14:12:58;;;;;;;5.77;4.47;;;12.80;99.90;;;;;;5060739;28;20610;-84